Time;durP1;ratioP1;P1;durP2;ratioP2;P2;SDS_P1;SDS_P2;PMS_P1;PMS_P2;Temp;Humidity;BMP_temperature;BMP_pressure;BME280_temperature;BME280_humidity;BME280_pressure;Samples;Min_cycle;Max_cycle;Signal;HPM_P1;HPM_P2
2021/11/05 00:00:39;;;;;;;158.17;151.40;;;5.00;99.90;;;;;;4391166;32;20226;-61
2021/11/05 00:03:06;;;;;;;156.63;149.63;;;4.90;99.90;;;;;;4392669;32;20203;-61
2021/11/05 00:05:35;;;;;;;147.77;141.10;;;4.90;99.90;;;;;;4392250;32;20208;-61
2021/11/05 00:08:07;;;;;;;169.53;161.73;;;4.90;99.90;;;;;;4388405;32;20250;-61
2021/11/05 00:10:34;;;;;;;160.17;153.27;;;4.90;99.90;;;;;;4384578;32;20200;-61
2021/11/05 00:13:01;;;;;;;170.33;163.07;;;4.90;99.90;;;;;;4377652;32;20533;-61
2021/11/05 00:15:29;;;;;;;152.80;145.90;;;4.90;99.90;;;;;;4376487;32;20171;-61
2021/11/05 00:17:56;;;;;;;162.70;155.53;;;4.90;99.90;;;;;;4375974;32;20151;-61
2021/11/05 00:20:23;;;;;;;161.77;154.87;;;4.90;99.90;;;;;;4375626;32;20216;-61
2021/11/05 00:22:51;;;;;;;153.70;147.20;;;5.00;99.90;;;;;;4377427;32;20220;-61
2021/11/05 00:25:18;;;;;;;158.33;151.47;;;5.00;99.90;;;;;;4375757;32;20580;-61
2021/11/05 00:27:45;;;;;;;160.67;153.70;;;5.00;99.90;;;;;;4376339;32;20187;-61
2021/11/05 00:30:13;;;;;;;166.93;159.93;;;5.00;99.90;;;;;;4375387;32;20220;-61
2021/11/05 00:32:42;;;;;;;167.47;160.33;;;5.00;99.90;;;;;;4375624;32;20172;-60
2021/11/05 00:35:10;;;;;;;156.67;149.83;;;5.00;99.90;;;;;;4375636;32;20588;-61
2021/11/05 00:37:37;;;;;;;172.63;164.97;;;5.10;99.90;;;;;;4375475;32;20152;-61
2021/11/05 00:40:07;;;;;;;174.93;167.53;;;5.10;99.90;;;;;;4376068;32;20168;-61
2021/11/05 00:42:34;;;;;;;168.40;161.27;;;5.00;99.90;;;;;;4375662;32;20637;-61
2021/11/05 00:45:02;;;;;;;170.37;162.97;;;5.10;99.90;;;;;;4377208;32;20516;-61
2021/11/05 00:47:28;;;;;;;169.30;161.53;;;5.10;99.90;;;;;;4377208;32;20587;-61
2021/11/05 00:49:55;;;;;;;163.33;156.20;;;5.10;99.90;;;;;;4377072;32;20188;-61
2021/11/05 00:52:22;;;;;;;189.10;181.10;;;5.10;99.90;;;;;;4375221;32;20188;-61
2021/11/05 00:54:49;;;;;;;171.73;164.40;;;5.10;99.90;;;;;;4375344;32;20207;-61
2021/11/05 00:57:17;;;;;;;165.13;158.07;;;5.10;99.90;;;;;;4385511;32;20487;-61
2021/11/05 00:59:44;;;;;;;173.20;165.63;;;5.10;99.90;;;;;;4392044;32;20168;-61
2021/11/05 01:02:13;;;;;;;182.63;174.90;;;5.00;99.90;;;;;;4391966;32;20654;-61
2021/11/05 01:04:40;;;;;;;167.37;160.07;;;5.00;99.90;;;;;;4391845;32;20195;-61
2021/11/05 01:07:07;;;;;;;172.33;165.00;;;5.00;99.90;;;;;;4390354;32;20203;-61
2021/11/05 01:09:34;;;;;;;172.87;165.53;;;5.00;99.90;;;;;;4391756;32;20187;-61
2021/11/05 01:12:01;;;;;;;156.13;149.33;;;5.10;99.90;;;;;;4391916;32;20220;-61
2021/11/05 01:14:29;;;;;;;158.67;151.53;;;5.00;99.90;;;;;;4387365;32;20170;-61
2021/11/05 01:16:58;;;;;;;156.60;149.60;;;5.00;99.90;;;;;;4376717;32;20157;-61
2021/11/05 01:19:25;;;;;;;157.80;150.97;;;5.00;99.90;;;;;;4376737;32;20152;-61
2021/11/05 01:21:52;;;;;;;160.90;154.03;;;5.00;99.90;;;;;;4375238;32;20692;-61
2021/11/05 01:24:19;;;;;;;165.90;158.83;;;5.00;99.90;;;;;;4375538;32;20223;-61
2021/11/05 01:26:45;;;;;;;168.13;161.03;;;5.00;99.90;;;;;;4375215;32;20214;-61
2021/11/05 01:29:12;;;;;;;168.77;161.40;;;5.00;99.90;;;;;;4374906;32;20228;-61
2021/11/05 01:31:41;;;;;;;170.80;163.67;;;4.90;99.90;;;;;;4376834;32;20172;-61
2021/11/05 01:34:08;;;;;;;169.53;162.20;;;4.90;99.90;;;;;;4376370;32;20148;-62
2021/11/05 01:36:35;;;;;;;158.33;151.33;;;4.90;99.90;;;;;;4378350;32;20198;-61
2021/11/05 01:39:01;;;;;;;165.73;158.80;;;5.00;99.90;;;;;;4382231;32;20160;-61
2021/11/05 01:41:28;;;;;;;169.90;162.50;;;4.90;99.90;;;;;;4376375;32;20172;-61
2021/11/05 01:43:55;;;;;;;163.60;156.17;;;4.90;99.90;;;;;;4377991;32;20206;-61
2021/11/05 01:46:22;;;;;;;159.67;152.77;;;4.90;99.90;;;;;;4378193;32;20243;-61
2021/11/05 01:48:51;;;;;;;167.00;159.63;;;5.00;99.90;;;;;;4378262;32;20205;-61
2021/11/05 01:51:18;;;;;;;172.83;165.27;;;5.00;99.90;;;;;;4377960;32;20587;-60
2021/11/05 01:53:47;;;;;;;163.73;156.57;;;5.00;99.90;;;;;;4388535;32;20263;-60
2021/11/05 01:56:14;;;;;;;165.87;158.37;;;5.00;99.90;;;;;;4394030;32;20620;-61
2021/11/05 01:58:41;;;;;;;178.63;171.00;;;5.00;99.90;;;;;;4394583;32;20206;-61
2021/11/05 02:01:09;;;;;;;177.97;169.97;;;5.00;99.90;;;;;;4394653;32;20148;-60
2021/11/05 02:03:36;;;;;;;165.93;158.83;;;5.00;99.90;;;;;;4394553;32;20202;-61
2021/11/05 02:06:05;;;;;;;165.70;158.40;;;5.00;99.90;;;;;;4383596;32;20152;-61
2021/11/05 02:08:35;;;;;;;181.53;173.90;;;4.90;99.90;;;;;;4379339;32;20167;-61
2021/11/05 02:11:05;;;;;;;176.23;168.67;;;4.90;99.90;;;;;;4377757;32;20210;-61
2021/11/05 02:13:34;;;;;;;158.03;151.03;;;4.90;99.90;;;;;;4377662;32;20160;-61
2021/11/05 02:16:01;;;;;;;175.33;167.83;;;4.90;99.90;;;;;;4377641;32;20170;-61
2021/11/05 02:18:29;;;;;;;165.93;158.63;;;4.90;99.90;;;;;;4378577;32;20167;-61
2021/11/05 02:20:57;;;;;;;187.17;178.83;;;4.90;99.90;;;;;;4377446;32;20215;-61
2021/11/05 02:23:26;;;;;;;171.33;163.90;;;4.90;99.90;;;;;;4379166;32;20188;-61
2021/11/05 02:25:53;;;;;;;172.33;164.80;;;4.90;99.90;;;;;;4379215;32;20216;-60
2021/11/05 02:28:20;;;;;;;159.57;152.83;;;4.90;99.90;;;;;;4390614;32;20216;-61
2021/11/05 02:30:50;;;;;;;172.67;165.17;;;4.90;99.90;;;;;;4392342;32;20548;-61
2021/11/05 02:33:18;;;;;;;170.10;163.00;;;4.80;99.90;;;;;;4392568;32;20174;-61
2021/11/05 02:35:45;;;;;;;173.40;166.30;;;4.80;99.90;;;;;;4392577;32;20167;-61
2021/11/05 02:38:13;;;;;;;163.40;156.27;;;4.80;99.90;;;;;;4392369;32;20212;-61
2021/11/05 02:40:41;;;;;;;167.70;160.60;;;4.80;99.90;;;;;;4393897;32;20208;-61
2021/11/05 02:43:08;;;;;;;163.67;156.67;;;4.80;99.90;;;;;;4393454;32;20604;-60
2021/11/05 02:45:35;;;;;;;177.20;169.50;;;4.80;99.90;;;;;;4393928;32;20168;-61
2021/11/05 02:48:03;;;;;;;165.10;158.10;;;4.80;99.90;;;;;;4393736;32;20187;-61
2021/11/05 02:50:30;;;;;;;174.53;167.20;;;4.70;99.90;;;;;;4392055;32;20179;-61
2021/11/05 02:52:56;;;;;;;167.50;160.07;;;4.70;99.90;;;;;;4391375;32;20163;-60
2021/11/05 02:55:24;;;;;;;159.57;152.87;;;4.70;99.90;;;;;;4393723;32;20204;-60
2021/11/05 02:57:52;;;;;;;168.70;160.83;;;4.70;99.90;;;;;;4378244;32;20160;-61
2021/11/05 03:00:20;;;;;;;158.13;151.30;;;4.70;99.90;;;;;;4376994;32;20160;-61
2021/11/05 03:02:47;;;;;;;159.83;152.70;;;4.70;99.90;;;;;;4377456;32;20212;-61
2021/11/05 03:05:15;;;;;;;162.40;155.53;;;4.70;99.90;;;;;;4380816;32;20168;-61
2021/11/05 03:07:42;;;;;;;182.40;174.53;;;4.70;99.90;;;;;;4393258;32;20259;-60
2021/11/05 03:10:12;;;;;;;155.07;148.33;;;4.60;99.90;;;;;;4391640;32;20171;-61
2021/11/05 03:12:39;;;;;;;156.70;149.90;;;4.60;99.90;;;;;;4392593;32;20595;-61
2021/11/05 03:15:08;;;;;;;170.20;162.57;;;4.60;99.90;;;;;;4393526;32;20247;-61
2021/11/05 03:17:36;;;;;;;162.17;155.20;;;4.50;99.90;;;;;;4393318;32;20543;-61
2021/11/05 03:20:03;;;;;;;158.10;151.23;;;4.50;99.90;;;;;;4391827;32;20172;-60
2021/11/05 03:22:31;;;;;;;168.63;161.00;;;4.50;99.90;;;;;;4391655;32;20192;-61
2021/11/05 03:24:58;;;;;;;164.87;157.70;;;4.50;99.90;;;;;;4393057;32;20253;-61
2021/11/05 03:27:25;;;;;;;158.47;151.73;;;4.40;99.90;;;;;;4391721;32;20169;-61
2021/11/05 03:29:51;;;;;;;160.93;153.90;;;4.40;99.90;;;;;;4392360;32;20664;-61
2021/11/05 03:32:20;;;;;;;164.53;157.50;;;4.40;99.90;;;;;;4392549;32;20508;-61
2021/11/05 03:34:46;;;;;;;168.07;160.80;;;4.40;99.90;;;;;;4389706;32;20216;-61
2021/11/05 03:37:13;;;;;;;154.67;147.83;;;4.40;99.90;;;;;;4379324;32;20518;-60
2021/11/05 03:39:40;;;;;;;164.40;157.07;;;4.30;99.90;;;;;;4376242;32;20168;-60
2021/11/05 03:42:07;;;;;;;155.43;148.57;;;4.30;99.90;;;;;;4377670;32;20595;-60
2021/11/05 03:44:34;;;;;;;181.53;173.57;;;4.20;99.90;;;;;;4377937;32;20190;-61
2021/11/05 03:47:01;;;;;;;167.70;160.40;;;4.30;99.90;;;;;;4376260;32;20239;-61
2021/11/05 03:49:30;;;;;;;157.60;150.67;;;4.20;99.90;;;;;;4376311;32;20219;-61
2021/11/05 03:52:00;;;;;;;159.90;152.83;;;4.20;99.90;;;;;;4376264;32;20187;-60
2021/11/05 03:54:27;;;;;;;153.20;146.33;;;4.20;99.90;;;;;;4376205;32;20167;-61
2021/11/05 03:56:57;;;;;;;165.13;157.90;;;4.20;99.90;;;;;;4384016;32;20208;-60
2021/11/05 03:59:23;;;;;;;150.87;144.33;;;4.20;99.90;;;;;;4391132;32;20200;-60
2021/11/05 04:01:50;;;;;;;162.53;155.40;;;4.10;99.90;;;;;;4391185;32;20222;-61
2021/11/05 04:04:17;;;;;;;163.27;156.10;;;4.10;99.90;;;;;;4390889;32;20612;-61
2021/11/05 04:06:47;;;;;;;152.20;144.90;;;4.00;99.90;;;;;;4390879;32;20238;-61
2021/11/05 04:09:14;;;;;;;151.80;145.23;;;4.10;99.90;;;;;;4392588;32;20167;-60
2021/11/05 04:11:40;;;;;;;162.03;155.07;;;4.00;99.90;;;;;;4390505;32;20191;-61
2021/11/05 04:14:07;;;;;;;150.80;144.30;;;4.00;99.90;;;;;;4391012;32;20200;-60
2021/11/05 04:16:34;;;;;;;153.67;146.87;;;3.90;99.90;;;;;;4392608;32;20148;-60
2021/11/05 04:19:01;;;;;;;151.40;144.60;;;3.90;99.90;;;;;;4391908;32;20504;-61
2021/11/05 04:21:28;;;;;;;158.17;151.23;;;3.90;99.90;;;;;;4390898;32;20153;-61
2021/11/05 04:23:57;;;;;;;163.13;155.80;;;3.90;99.90;;;;;;4392198;32;20164;-60
2021/11/05 04:26:24;;;;;;;157.17;150.10;;;3.90;99.90;;;;;;4390707;32;20165;-60
2021/11/05 04:28:51;;;;;;;164.47;157.33;;;3.90;99.90;;;;;;4387082;32;20275;-60
2021/11/05 04:31:17;;;;;;;165.23;157.83;;;3.80;99.90;;;;;;4340899;32;1642522;-60
2021/11/05 04:33:44;;;;;;;156.30;149.40;;;3.80;99.90;;;;;;4390758;32;20156;-61
2021/11/05 04:36:12;;;;;;;163.20;155.90;;;3.80;99.90;;;;;;4391417;32;20174;-60
2021/11/05 04:38:39;;;;;;;159.27;152.20;;;3.80;99.90;;;;;;4371385;32;20145;-60
2021/11/05 04:41:08;;;;;;;160.37;153.33;;;3.80;99.90;;;;;;4367308;32;20275;-60
2021/11/05 04:43:34;;;;;;;159.00;151.67;;;3.70;99.90;;;;;;4374941;32;20618;-60
2021/11/05 04:46:01;;;;;;;159.77;152.67;;;3.70;99.90;;;;;;4375403;32;20152;-60
2021/11/05 04:48:28;;;;;;;161.77;154.63;;;3.60;99.90;;;;;;4375571;32;20227;-60
2021/11/05 04:50:55;;;;;;;158.60;151.63;;;3.60;99.90;;;;;;4375299;32;20255;-60
2021/11/05 04:53:24;;;;;;;161.97;154.87;;;3.60;99.90;;;;;;4376299;32;20174;-60
2021/11/05 04:55:50;;;;;;;161.97;154.67;;;3.60;99.90;;;;;;4375668;32;20587;-60
2021/11/05 04:58:19;;;;;;;159.63;152.53;;;3.60;99.90;;;;;;4360558;33;20584;-61
2021/11/05 05:00:45;;;;;;;171.80;164.47;;;3.60;99.90;;;;;;4361141;32;20165;-60
2021/11/05 05:03:12;;;;;;;169.90;162.50;;;3.60;99.90;;;;;;4360612;33;20160;-60
2021/11/05 05:05:39;;;;;;;161.67;154.23;;;3.50;99.90;;;;;;4368817;32;20166;-61
2021/11/05 05:08:06;;;;;;;169.93;162.20;;;3.60;99.90;;;;;;4376952;32;20148;-60
2021/11/05 05:10:33;;;;;;;187.80;179.30;;;3.50;99.90;;;;;;4375411;32;20538;-60
2021/11/05 05:13:00;;;;;;;159.43;152.03;;;3.50;99.90;;;;;;4375407;32;20186;-60
2021/11/05 05:15:28;;;;;;;161.37;154.17;;;3.50;99.90;;;;;;4375848;32;20287;-60
2021/11/05 05:17:55;;;;;;;167.27;159.90;;;3.50;99.90;;;;;;4378633;32;20170;-61
2021/11/05 05:20:22;;;;;;;163.47;156.17;;;3.50;99.90;;;;;;4378486;32;20243;-60
2021/11/05 05:22:49;;;;;;;160.43;153.43;;;3.40;99.90;;;;;;4378306;32;20559;-60
2021/11/05 05:25:17;;;;;;;175.57;167.77;;;3.40;99.90;;;;;;4378411;32;20220;-60
2021/11/05 05:27:47;;;;;;;171.07;163.47;;;3.50;99.90;;;;;;4378984;32;20136;-60
2021/11/05 05:30:16;;;;;;;164.53;156.97;;;3.40;99.90;;;;;;4377019;32;20269;-61
2021/11/05 05:32:47;;;;;;;166.60;159.03;;;3.40;99.90;;;;;;4379840;32;20147;-60
2021/11/05 05:35:14;;;;;;;171.33;163.70;;;3.30;99.90;;;;;;4377984;32;20155;-60
2021/11/05 05:37:41;;;;;;;167.97;160.57;;;3.40;99.90;;;;;;4378159;32;20215;-60
2021/11/05 05:40:10;;;;;;;172.87;164.83;;;3.30;99.90;;;;;;4378201;32;20170;-60
2021/11/05 05:42:37;;;;;;;163.40;155.87;;;3.30;99.90;;;;;;4379010;32;20588;-60
2021/11/05 05:45:05;;;;;;;172.53;164.53;;;3.30;99.90;;;;;;4378140;32;20175;-61
2021/11/05 05:47:32;;;;;;;167.73;160.10;;;3.30;99.90;;;;;;4377563;32;20220;-60
2021/11/05 05:50:00;;;;;;;185.47;177.37;;;3.30;99.90;;;;;;4378554;32;20149;-60
2021/11/05 05:52:27;;;;;;;165.93;158.70;;;3.30;99.90;;;;;;4376074;32;20234;-61
2021/11/05 05:54:54;;;;;;;166.37;158.60;;;3.20;99.90;;;;;;4364554;32;20286;-60
2021/11/05 05:57:20;;;;;;;164.07;156.63;;;3.20;99.90;;;;;;4373467;32;20231;-60
2021/11/05 05:59:47;;;;;;;163.30;155.70;;;3.20;99.90;;;;;;4379497;32;20230;-60
2021/11/05 06:02:14;;;;;;;166.53;159.23;;;3.20;99.90;;;;;;4390052;32;20536;-60
2021/11/05 06:04:41;;;;;;;176.30;168.33;;;3.20;99.90;;;;;;4392605;32;20207;-60
2021/11/05 06:07:10;;;;;;;172.57;165.10;;;3.20;99.90;;;;;;4389465;32;20171;-59
2021/11/05 06:09:37;;;;;;;172.67;164.97;;;3.30;99.90;;;;;;4378626;32;20198;-60
2021/11/05 06:12:05;;;;;;;175.20;167.53;;;3.30;99.90;;;;;;4377493;32;20159;-60
2021/11/05 06:14:32;;;;;;;172.50;164.70;;;3.30;99.90;;;;;;4377182;32;20219;-60
2021/11/05 06:16:59;;;;;;;170.30;162.70;;;3.30;99.90;;;;;;4370680;32;20635;-60
2021/11/05 06:19:26;;;;;;;165.47;157.73;;;3.20;99.90;;;;;;4368800;32;20200;-60
2021/11/05 06:21:53;;;;;;;180.33;172.23;;;3.20;99.90;;;;;;4372686;32;20607;-60
2021/11/05 06:24:22;;;;;;;185.00;176.43;;;3.30;99.90;;;;;;4377226;32;20224;-61
2021/11/05 06:26:49;;;;;;;178.47;170.40;;;3.20;99.90;;;;;;4376740;32;20571;-60
2021/11/05 06:29:16;;;;;;;176.73;168.77;;;3.20;99.90;;;;;;4376283;32;20539;-61
2021/11/05 06:31:43;;;;;;;179.57;171.40;;;3.30;99.90;;;;;;4375886;32;20176;-60
2021/11/05 06:34:10;;;;;;;187.93;179.00;;;3.40;99.90;;;;;;4376585;32;20157;-61
2021/11/05 06:36:37;;;;;;;183.70;175.20;;;3.60;99.90;;;;;;4376071;32;20207;-61
2021/11/05 06:39:05;;;;;;;201.40;192.53;;;3.70;99.90;;;;;;4376980;32;20187;-60
2021/11/05 06:41:33;;;;;;;188.03;179.60;;;3.80;99.90;;;;;;4376019;32;20160;-60
2021/11/05 06:44:00;;;;;;;190.63;181.80;;;3.90;99.90;;;;;;4375508;32;20662;-60
2021/11/05 06:46:27;;;;;;;211.17;201.67;;;4.00;99.90;;;;;;4375616;32;20240;-60
2021/11/05 06:48:54;;;;;;;199.77;190.53;;;4.10;99.90;;;;;;4376587;32;20593;-60
2021/11/05 06:51:21;;;;;;;203.70;194.13;;;4.20;99.90;;;;;;4375677;32;20148;-61
2021/11/05 06:53:51;;;;;;;193.03;183.97;;;4.30;99.90;;;;;;4377403;32;20153;-61
2021/11/05 06:56:19;;;;;;;183.03;174.60;;;4.30;99.90;;;;;;4375635;32;20152;-61
2021/11/05 06:58:50;;;;;;;192.23;183.13;;;4.30;99.90;;;;;;4374588;32;20148;-61
2021/11/05 07:01:17;;;;;;;182.07;173.43;;;4.30;99.90;;;;;;4376431;32;20362;-61
2021/11/05 07:03:44;;;;;;;186.40;177.70;;;4.30;99.90;;;;;;4377100;32;20629;-61
2021/11/05 07:06:10;;;;;;;175.57;167.10;;;4.30;99.90;;;;;;4376003;32;20164;-60
2021/11/05 07:08:37;;;;;;;191.33;182.50;;;4.20;99.90;;;;;;4375720;32;20226;-61
2021/11/05 07:11:04;;;;;;;177.67;169.30;;;4.10;99.90;;;;;;4376386;32;20484;-60
2021/11/05 07:13:31;;;;;;;192.43;183.43;;;4.10;99.90;;;;;;4376381;32;20161;-61
2021/11/05 07:15:59;;;;;;;179.53;171.17;;;4.20;99.90;;;;;;4374839;32;20228;-60
2021/11/05 07:18:28;;;;;;;183.93;175.20;;;4.10;99.90;;;;;;4374246;32;20230;-61
2021/11/05 07:20:55;;;;;;;178.47;169.97;;;4.10;99.90;;;;;;4375879;32;20152;-60
2021/11/05 07:23:22;;;;;;;175.60;167.53;;;4.00;99.90;;;;;;4375902;32;20148;-61
2021/11/05 07:25:48;;;;;;;177.00;168.80;;;4.10;99.90;;;;;;4376687;32;20163;-61
2021/11/05 07:28:15;;;;;;;174.07;166.00;;;4.10;99.90;;;;;;4377485;32;20187;-61
2021/11/05 07:30:43;;;;;;;172.03;163.73;;;4.10;99.90;;;;;;4375584;32;20176;-60
2021/11/05 07:33:11;;;;;;;181.87;173.40;;;4.20;99.90;;;;;;4375667;32;20227;-61
2021/11/05 07:35:38;;;;;;;172.73;164.80;;;4.20;99.90;;;;;;4376249;32;20163;-61
2021/11/05 07:38:05;;;;;;;176.63;168.07;;;4.20;99.90;;;;;;4374039;32;20160;-61
2021/11/05 07:40:32;;;;;;;182.03;173.67;;;4.30;99.90;;;;;;4375519;32;20449;-61
2021/11/05 07:42:59;;;;;;;173.47;165.33;;;4.30;99.90;;;;;;4377098;32;20155;-61
2021/11/05 07:45:27;;;;;;;180.03;171.97;;;4.40;99.90;;;;;;4378001;32;20628;-61
2021/11/05 07:47:55;;;;;;;185.10;176.57;;;4.40;99.90;;;;;;4376286;32;20140;-61
2021/11/05 07:50:26;;;;;;;169.87;161.60;;;4.60;99.90;;;;;;4377103;32;20497;-61
2021/11/05 07:52:53;;;;;;;190.23;181.53;;;4.60;99.90;;;;;;4376136;32;20156;-61
2021/11/05 07:55:21;;;;;;;185.03;176.37;;;4.80;99.90;;;;;;4376201;32;20216;-61
2021/11/05 07:57:47;;;;;;;184.00;175.47;;;5.00;99.90;;;;;;4376170;32;20192;-61
2021/11/05 08:00:16;;;;;;;196.97;188.17;;;5.10;99.90;;;;;;4376236;32;20152;-61
2021/11/05 08:02:43;;;;;;;190.03;181.57;;;5.20;99.90;;;;;;4377337;32;20175;-60
2021/11/05 08:05:10;;;;;;;191.10;182.23;;;5.30;99.90;;;;;;4376062;32;20159;-61
2021/11/05 08:07:39;;;;;;;199.40;190.30;;;5.20;99.90;;;;;;4375687;32;20141;-61
2021/11/05 08:10:07;;;;;;;207.33;197.63;;;5.20;99.90;;;;;;4376560;32;20167;-60
2021/11/05 08:12:34;;;;;;;198.53;189.57;;;5.10;99.90;;;;;;4375907;32;20167;-61
2021/11/05 08:15:01;;;;;;;195.67;187.13;;;5.10;99.90;;;;;;4375824;32;20157;-61
2021/11/05 08:17:28;;;;;;;189.20;180.47;;;5.20;99.90;;;;;;4377178;32;20136;-61
2021/11/05 08:19:55;;;;;;;198.60;189.67;;;5.30;99.90;;;;;;4376001;32;20136;-61
2021/11/05 08:22:22;;;;;;;202.93;193.63;;;5.50;99.90;;;;;;4376071;32;20603;-61
2021/11/05 08:24:52;;;;;;;235.63;225.17;;;5.70;99.90;;;;;;4377409;32;20255;-61
2021/11/05 08:27:19;;;;;;;243.23;232.47;;;6.20;99.90;;;;;;4377545;32;20193;-60
2021/11/05 08:29:46;;;;;;;248.47;237.63;;;6.50;99.90;;;;;;4375573;32;20190;-60
2021/11/05 08:32:13;;;;;;;271.77;260.07;;;6.80;99.90;;;;;;4365671;32;20522;-61
2021/11/05 08:34:40;;;;;;;257.47;246.27;;;6.90;99.90;;;;;;4369522;32;20628;-61
2021/11/05 08:37:07;;;;;;;247.63;236.57;;;6.90;99.90;;;;;;4371725;32;20171;-61
2021/11/05 08:39:34;;;;;;;282.53;269.80;;;6.90;99.90;;;;;;4375553;32;20153;-61
2021/11/05 08:42:03;;;;;;;314.67;300.43;;;7.20;99.90;;;;;;4375412;32;20161;-61
2021/11/05 08:44:32;;;;;;;347.20;331.07;;;7.80;99.90;;;;;;4375582;32;20168;-61
2021/11/05 08:46:59;;;;;;;380.33;362.70;;;8.40;99.90;;;;;;4375697;32;20216;-62
2021/11/05 08:49:27;;;;;;;441.30;420.67;;;8.70;99.90;;;;;;4375671;32;20156;-61
2021/11/05 08:51:55;;;;;;;434.97;414.53;;;8.90;99.90;;;;;;4374700;32;20539;-60
2021/11/05 08:54:22;;;;;;;453.20;431.83;;;8.80;99.90;;;;;;4375500;32;20159;-60
2021/11/05 08:56:49;;;;;;;415.40;396.57;;;8.70;99.90;;;;;;4375426;32;20207;-61
2021/11/05 08:59:19;;;;;;;445.97;424.60;;;8.70;99.90;;;;;;4375455;32;20183;-60
2021/11/05 09:01:46;;;;;;;438.30;418.43;;;8.70;99.90;;;;;;4375591;32;20175;-60
2021/11/05 09:04:17;;;;;;;439.77;419.50;;;8.80;99.90;;;;;;4373635;32;20580;-61
2021/11/05 09:06:45;;;;;;;411.77;393.03;;;8.80;99.90;;;;;;4367590;32;20141;-61
2021/11/05 09:09:13;;;;;;;403.60;385.63;;;8.70;99.90;;;;;;4360055;32;20165;-62
2021/11/05 09:11:40;;;;;;;400.77;383.00;;;8.50;99.90;;;;;;4372640;32;20216;-62
2021/11/05 09:14:07;;;;;;;393.23;375.60;;;8.50;99.90;;;;;;4373433;32;20175;-62
2021/11/05 09:16:35;;;;;;;387.43;370.40;;;8.60;99.90;;;;;;4372676;32;20217;-62
2021/11/05 09:19:03;;;;;;;433.97;414.73;;;8.70;99.90;;;;;;4360086;32;20167;-62
2021/11/05 09:21:31;;;;;;;441.70;421.57;;;8.80;99.90;;;;;;4366458;32;20183;-61
2021/11/05 09:24:01;;;;;;;443.17;422.30;;;8.90;99.90;;;;;;4375048;32;20216;-62
2021/11/05 09:26:28;;;;;;;452.23;430.17;;;9.00;99.90;;;;;;4369481;32;20143;-60
2021/11/05 09:28:55;;;;;;;505.60;481.47;;;9.10;99.90;;;;;;4370629;32;20146;-61
2021/11/05 09:31:22;;;;;;;505.37;480.97;;;9.30;99.90;;;;;;4374083;32;20495;-62
2021/11/05 09:33:51;;;;;;;529.30;502.33;;;9.50;99.90;;;;;;4373714;32;20660;-62
2021/11/05 09:36:18;;;;;;;529.73;503.30;;;9.60;99.90;;;;;;4373904;32;20161;-60
2021/11/05 09:38:46;;;;;;;534.93;506.37;;;9.60;99.90;;;;;;4359672;32;20191;-61
2021/11/05 09:41:13;;;;;;;556.43;528.37;;;9.70;99.90;;;;;;4360242;32;20174;-60
2021/11/05 09:43:41;;;;;;;572.33;543.37;;;10.00;99.90;;;;;;4360096;32;20166;-61
2021/11/05 09:46:08;;;;;;;576.87;547.07;;;10.20;99.90;;;;;;4360257;32;20131;-61
2021/11/05 09:48:37;;;;;;;585.63;555.17;;;10.70;99.90;;;;;;4368718;32;20155;-62
2021/11/05 09:51:07;;;;;;;548.43;521.10;;;10.80;99.90;;;;;;4364910;32;20475;-63
2021/11/05 09:53:36;;;;;;;551.90;523.83;;;10.80;99.90;;;;;;4360276;32;20164;-62
2021/11/05 09:56:06;;;;;;;555.40;527.50;;;10.80;99.90;;;;;;4363125;32;20487;-62
2021/11/05 09:58:33;;;;;;;500.67;476.60;;;10.90;99.90;;;;;;4361756;32;20158;-62
2021/11/05 10:01:00;;;;;;;440.80;420.73;;;10.50;99.90;;;;;;4361630;32;20458;-62
2021/11/05 10:03:28;;;;;;;392.00;374.60;;;10.20;99.90;;;;;;4362354;32;20164;-61
2021/11/05 10:05:55;;;;;;;444.00;423.47;;;10.10;99.90;;;;;;4364449;32;20144;-61
2021/11/05 10:08:31;;;;;;;456.60;435.57;;;10.10;99.90;;;;;;4364579;32;20217;-62
2021/11/05 10:10:58;;;;;;;501.77;478.17;;;10.10;99.90;;;;;;4362662;32;20158;-61
2021/11/05 10:13:25;;;;;;;490.93;467.17;;;10.30;99.90;;;;;;4362605;32;20153;-62
2021/11/05 10:15:54;;;;;;;523.47;497.67;;;10.50;99.90;;;;;;4375343;32;20190;-62
2021/11/05 10:18:24;;;;;;;528.00;501.80;;;10.60;99.90;;;;;;4378633;32;20158;-61
2021/11/05 10:21:08;;;;;;;474.90;452.47;;;10.60;99.90;;;;;;4377771;32;20468;-62
2021/11/05 10:23:38;;;;;;;453.53;433.33;;;10.50;99.90;;;;;;4378559;32;20175;-62
2021/11/05 10:26:06;;;;;;;412.50;394.07;;;10.50;99.90;;;;;;4373874;32;20145;-62
2021/11/05 10:28:38;;;;;;;442.07;422.20;;;10.40;99.90;;;;;;4369414;32;20167;-61
2021/11/05 10:31:07;;;;;;;442.57;423.03;;;10.30;99.90;;;;;;4362447;32;20153;-61
2021/11/05 10:33:38;;;;;;;437.20;417.23;;;10.30;99.90;;;;;;4362475;33;20161;-62
2021/11/05 10:36:07;;;;;;;467.47;446.07;;;10.20;99.90;;;;;;4363678;32;20228;-62
2021/11/05 10:38:40;;;;;;;484.97;462.67;;;10.20;99.90;;;;;;4362933;32;20181;-61
2021/11/05 10:41:10;;;;;;;440.97;421.17;;;10.30;99.90;;;;;;4368537;32;20144;-61
2021/11/05 10:43:40;;;;;;;436.53;416.97;;;10.30;99.90;;;;;;4377329;32;20146;-61
2021/11/05 10:46:10;;;;;;;441.53;422.00;;;10.20;99.90;;;;;;4378856;32;20160;-61
2021/11/05 10:48:40;;;;;;;484.20;461.77;;;10.30;99.90;;;;;;4366499;32;20513;-60
2021/11/05 10:51:08;;;;;;;505.93;482.77;;;10.40;99.90;;;;;;4362245;32;20138;-62
2021/11/05 10:53:38;;;;;;;513.13;488.87;;;10.60;99.90;;;;;;4362097;33;20156;-62
2021/11/05 10:56:06;;;;;;;521.13;495.97;;;11.00;99.90;;;;;;4362994;32;20163;-61
2021/11/05 10:58:36;;;;;;;537.73;512.07;;;11.40;99.90;;;;;;4361863;33;20288;-62
2021/11/05 11:01:05;;;;;;;448.97;428.77;;;11.90;99.90;;;;;;4362143;33;20164;-61
2021/11/05 11:03:34;;;;;;;411.33;393.73;;;12.20;99.90;;;;;;4363516;32;20232;-62
2021/11/05 11:06:06;;;;;;;298.63;286.40;;;12.40;99.90;;;;;;4361994;32;20163;-61
2021/11/05 11:08:35;;;;;;;286.27;274.37;;;12.20;99.90;;;;;;4361915;32;20216;-62
2021/11/05 11:11:17;;;;;;;265.97;254.83;;;12.30;99.90;;;;;;4363669;32;20141;-61
2021/11/05 11:13:44;;;;;;;257.03;246.40;;;12.10;99.90;;;;;;4362036;32;20576;-61
2021/11/05 11:16:16;;;;;;;261.37;250.90;;;12.00;99.90;;;;;;4361719;33;20156;-61
2021/11/05 11:18:49;;;;;;;281.00;269.53;;;11.80;99.90;;;;;;4361012;33;20141;-61
2021/11/05 11:21:16;;;;;;;262.23;251.63;;;11.70;99.90;;;;;;4361689;32;20137;-61
2021/11/05 11:23:43;;;;;;;277.43;266.00;;;11.60;99.90;;;;;;4371707;32;20164;-61
2021/11/05 11:26:14;;;;;;;293.97;281.90;;;11.50;99.90;;;;;;4377090;32;20600;-62
2021/11/05 11:28:42;;;;;;;292.10;280.20;;;11.50;99.90;;;;;;4376438;32;20163;-61
2021/11/05 11:31:11;;;;;;;293.80;281.17;;;11.50;99.90;;;;;;4376353;32;20155;-61
2021/11/05 11:33:39;;;;;;;308.67;295.93;;;11.40;99.90;;;;;;4378098;32;20144;-61
2021/11/05 11:36:06;;;;;;;336.33;322.10;;;11.30;99.90;;;;;;4378110;32;20238;-62
2021/11/05 11:38:34;;;;;;;322.27;309.03;;;11.50;99.90;;;;;;4369061;32;20211;-61
2021/11/05 11:41:01;;;;;;;345.27;330.73;;;11.40;99.90;;;;;;4369696;32;20212;-61
2021/11/05 11:43:32;;;;;;;366.27;350.80;;;11.50;99.90;;;;;;4361372;32;20161;-62
2021/11/05 11:46:01;;;;;;;358.10;343.23;;;11.70;99.90;;;;;;4361489;32;20166;-62
2021/11/05 11:48:48;;;;;;;333.13;319.27;;;11.80;99.90;;;;;;4372355;32;20181;-62
2021/11/05 11:51:33;;;;;;;302.70;290.37;;;11.80;99.90;;;;;;4377625;32;20161;-61
2021/11/05 11:54:23;;;;;;;284.70;273.20;;;11.90;99.90;;;;;;4377721;32;20176;-61
2021/11/05 11:56:52;;;;;;;312.77;300.17;;;11.90;99.90;;;;;;4377368;32;20175;-63
2021/11/05 11:59:29;;;;;;;318.70;305.87;;;11.90;99.90;;;;;;4376117;32;20557;-62
2021/11/05 12:01:56;;;;;;;304.27;292.10;;;12.20;99.90;;;;;;4376035;32;20139;-62
2021/11/05 12:04:33;;;;;;;281.67;270.50;;;12.30;99.90;;;;;;4376139;32;20140;-61
2021/11/05 12:07:09;;;;;;;250.57;240.67;;;12.00;99.90;;;;;;4375254;32;20174;-61
2021/11/05 12:09:38;;;;;;;273.83;262.77;;;12.00;99.90;;;;;;4369303;32;20226;-61
2021/11/05 12:12:34;;;;;;;258.30;247.87;;;11.90;99.90;;;;;;4377213;32;20157;-61
2021/11/05 12:15:16;;;;;;;259.97;249.60;;;11.70;99.90;;;;;;4376024;32;20246;-63
2021/11/05 12:18:06;;;;;;;280.60;269.30;;;11.90;99.90;;;;;;4375891;32;20148;-63
2021/11/05 12:20:35;;;;;;;241.67;232.00;;;12.30;99.90;;;;;;4376718;32;20136;-62